Time;durP1;ratioP1;P1;durP2;ratioP2;P2;SDS_P1;SDS_P2;PMS_P1;PMS_P2;Temp;Humidity;BMP_temperature;BMP_pressure;BME280_temperature;BME280_humidity;BME280_pressure;Samples;Min_cycle;Max_cycle;Signal;HPM_P1;HPM_P2
2022/06/29 00:02:11;;;;;;;2.25;0.75;;;20.20;85.30;;;;;;4986102;28;20042;-75
2022/06/29 00:04:37;;;;;;;2.72;0.70;;;20.10;84.80;;;;;;4988478;28;20030;-76
2022/06/29 00:07:03;;;;;;;1.33;0.55;;;20.10;85.40;;;;;;4993688;28;20369;-76
2022/06/29 00:09:29;;;;;;;1.67;0.68;;;20.10;86.10;;;;;;4992183;28;20111;-76
2022/06/29 00:11:56;;;;;;;1.42;0.60;;;20.10;86.50;;;;;;4986286;28;20054;-76
2022/06/29 00:14:22;;;;;;;1.15;0.60;;;20.00;87.20;;;;;;4994840;28;20038;-76
2022/06/29 00:16:48;;;;;;;2.08;0.60;;;20.00;87.60;;;;;;4993049;28;20034;-75
2022/06/29 00:19:14;;;;;;;1.70;0.98;;;19.90;88.10;;;;;;4991850;28;20045;-76
2022/06/29 00:21:40;;;;;;;3.95;0.70;;;19.90;87.10;;;;;;4989794;28;20055;-75
2022/06/29 00:24:07;;;;;;;2.03;0.73;;;19.90;87.40;;;;;;4993934;28;20034;-75
2022/06/29 00:26:34;;;;;;;5.53;0.80;;;19.90;88.00;;;;;;4993530;28;20026;-79
2022/06/29 00:29:00;;;;;;;13.52;2.65;;;19.90;89.10;;;;;;4999787;28;20045;-76
2022/06/29 00:31:26;;;;;;;2.33;0.73;;;19.80;87.10;;;;;;4992163;28;20033;-77
2022/06/29 00:33:52;;;;;;;1.55;0.60;;;19.80;87.90;;;;;;4988813;28;20324;-75
2022/06/29 00:36:18;;;;;;;3.15;0.68;;;19.80;88.70;;;;;;4993332;28;20041;-75
2022/06/29 00:38:45;;;;;;;2.25;0.70;;;19.80;88.80;;;;;;4989843;28;20034;-76
2022/06/29 00:41:11;;;;;;;1.75;0.50;;;19.80;89.70;;;;;;4992128;28;20117;-77
2022/06/29 00:43:43;;;;;;;1.98;0.68;;;19.90;88.80;;;;;;4992885;28;20026;-76
2022/06/29 00:46:09;;;;;;;1.35;0.60;;;19.90;88.20;;;;;;4990433;28;20026;-75
2022/06/29 00:48:36;;;;;;;1.10;0.50;;;19.90;87.70;;;;;;4992943;28;20030;-76
2022/06/29 00:51:05;;;;;;;1.58;0.77;;;19.80;88.10;;;;;;4992668;28;20030;-76
2022/06/29 00:53:37;;;;;;;2.78;0.50;;;19.80;89.30;;;;;;4993562;28;20041;-75
2022/06/29 00:56:08;;;;;;;1.50;0.98;;;19.80;88.80;;;;;;4993813;28;20503;-76
2022/06/29 00:58:34;;;;;;;1.58;0.50;;;19.80;89.90;;;;;;4991852;28;20019;-83
2022/06/29 01:01:04;;;;;;;5.18;0.93;;;19.80;90.00;;;;;;4989412;28;20038;-76
2022/06/29 01:03:32;;;;;;;2.22;1.10;;;19.80;88.50;;;;;;4993474;28;20034;-76
2022/06/29 01:06:00;;;;;;;1.63;0.65;;;19.80;88.90;;;;;;4987687;28;20059;-76
2022/06/29 01:08:27;;;;;;;1.92;0.73;;;19.80;88.00;;;;;;4992148;28;20038;-76
2022/06/29 01:10:53;;;;;;;1.90;0.68;;;19.70;89.80;;;;;;4991801;28;20034;-76
2022/06/29 01:13:19;;;;;;;1.13;0.60;;;19.70;90.50;;;;;;4994208;28;20111;-76
2022/06/29 01:15:46;;;;;;;1.67;0.82;;;19.70;90.50;;;;;;4993644;28;20049;-76
2022/06/29 01:18:12;;;;;;;1.95;0.75;;;19.70;90.50;;;;;;4990775;28;20022;-76
2022/06/29 01:20:38;;;;;;;5.68;0.65;;;19.70;90.70;;;;;;4995748;28;20034;-75
2022/06/29 01:23:04;;;;;;;1.45;0.50;;;19.60;91.20;;;;;;4992360;28;20034;-76
2022/06/29 01:25:30;;;;;;;2.47;0.88;;;19.60;91.30;;;;;;4996265;28;20026;-77
2022/06/29 01:27:58;;;;;;;3.10;0.70;;;19.50;91.40;;;;;;4994253;28;20033;-77
2022/06/29 01:30:25;;;;;;;1.48;0.65;;;19.50;91.50;;;;;;4989385;28;20093;-76
2022/06/29 01:32:51;;;;;;;3.45;1.65;;;19.50;91.40;;;;;;4992403;28;20030;-76
2022/06/29 01:35:18;;;;;;;3.60;0.80;;;19.60;91.00;;;;;;4988314;28;20034;-75
2022/06/29 01:37:44;;;;;;;2.30;0.88;;;19.50;90.90;;;;;;4988079;28;20038;-75
2022/06/29 01:40:11;;;;;;;2.72;0.57;;;19.50;90.60;;;;;;4987523;28;20037;-74
2022/06/29 01:42:38;;;;;;;1.15;0.70;;;19.50;91.30;;;;;;4991964;28;20041;-74
2022/06/29 01:45:04;;;;;;;1.73;0.85;;;19.40;91.10;;;;;;4992839;28;20026;-75
2022/06/29 01:47:30;;;;;;;6.45;0.90;;;19.40;91.20;;;;;;4989772;28;20038;-75
2022/06/29 01:49:57;;;;;;;4.70;1.13;;;19.30;91.40;;;;;;4991056;28;20380;-79
2022/06/29 01:52:23;;;;;;;1.10;0.93;;;19.30;92.20;;;;;;4993007;28;20023;-76
2022/06/29 01:54:49;;;;;;;1.90;0.50;;;19.30;92.30;;;;;;5006196;28;20041;-75
2022/06/29 01:57:15;;;;;;;4.03;0.90;;;19.30;92.60;;;;;;4991700;28;20035;-75
2022/06/29 01:59:41;;;;;;;2.00;0.80;;;19.40;92.40;;;;;;4990713;28;20058;-77
2022/06/29 02:02:08;;;;;;;0.70;0.45;;;19.30;91.80;;;;;;4988960;28;20034;-75
2022/06/29 02:04:34;;;;;;;1.65;0.60;;;19.40;92.20;;;;;;4990577;28;20026;-75
2022/06/29 02:07:00;;;;;;;2.05;0.73;;;19.40;91.60;;;;;;4984809;28;20027;-74
2022/06/29 02:09:27;;;;;;;1.58;0.82;;;19.40;91.10;;;;;;4987595;28;20049;-75
2022/06/29 02:11:53;;;;;;;3.20;0.65;;;19.40;90.60;;;;;;4990375;28;20050;-75
2022/06/29 02:14:19;;;;;;;2.85;0.80;;;19.40;90.30;;;;;;4992587;28;20022;-75
2022/06/29 02:16:45;;;;;;;1.95;0.73;;;19.40;90.90;;;;;;4995948;28;20038;-75
2022/06/29 02:19:11;;;;;;;2.40;0.80;;;19.40;91.20;;;;;;4982187;28;20034;-75
2022/06/29 02:21:38;;;;;;;2.72;0.80;;;19.40;91.30;;;;;;4991164;28;20045;-75
2022/06/29 02:24:04;;;;;;;2.13;0.63;;;19.50;91.00;;;;;;4991376;28;20053;-76
2022/06/29 02:26:30;;;;;;;2.75;1.08;;;19.50;91.10;;;;;;4990089;28;20034;-75
2022/06/29 02:28:57;;;;;;;1.58;0.75;;;19.50;90.90;;;;;;4991726;28;20026;-75
2022/06/29 02:36:53;;;;;;;1.40;0.80;;;19.40;92.10;;;;;;4984536;28;20038;-75
2022/06/29 02:39:20;;;;;;;2.72;0.68;;;19.30;92.20;;;;;;4992693;28;20483;-75
2022/06/29 02:41:46;;;;;;;2.10;0.70;;;19.30;92.00;;;;;;4985699;28;20030;-75
2022/06/29 02:44:12;;;;;;;4.85;1.35;;;19.30;91.60;;;;;;4991843;28;20026;-75
2022/06/29 02:46:38;;;;;;;5.53;1.25;;;19.30;91.80;;;;;;4989045;28;20026;-75
2022/06/29 02:49:04;;;;;;;3.08;0.77;;;19.30;92.00;;;;;;4991921;28;20460;-74
2022/06/29 02:51:30;;;;;;;2.08;0.75;;;19.30;92.10;;;;;;4990847;28;20046;-75
2022/06/29 02:53:57;;;;;;;2.45;0.90;;;19.20;92.70;;;;;;4985898;28;20037;-76
2022/06/29 02:56:23;;;;;;;1.60;0.70;;;19.20;93.10;;;;;;4985652;28;20026;-75
2022/06/29 02:58:49;;;;;;;1.83;0.82;;;19.20;93.10;;;;;;4987956;28;20042;-75
2022/06/29 03:01:15;;;;;;;4.05;0.90;;;19.20;93.50;;;;;;4991261;28;20030;-74
2022/06/29 03:03:41;;;;;;;2.08;0.90;;;19.20;93.00;;;;;;4991653;28;20043;-75
2022/06/29 03:06:07;;;;;;;2.45;0.93;;;19.20;92.80;;;;;;4992026;28;20027;-75
2022/06/29 03:08:34;;;;;;;1.98;0.70;;;19.20;93.30;;;;;;4988178;28;20027;-75
2022/06/29 03:11:00;;;;;;;1.50;0.93;;;19.10;93.80;;;;;;4988172;28;20034;-76
2022/06/29 03:13:26;;;;;;;1.20;0.80;;;19.10;94.10;;;;;;4996115;28;20045;-75
2022/06/29 03:15:52;;;;;;;4.38;0.73;;;19.10;94.40;;;;;;5010895;28;20051;-74
2022/06/29 03:18:18;;;;;;;2.60;0.90;;;19.10;93.90;;;;;;4996283;28;20053;-74
2022/06/29 03:20:45;;;;;;;6.38;1.00;;;19.10;94.20;;;;;;4989216;28;20038;-74
2022/06/29 03:23:11;;;;;;;1.05;0.40;;;19.10;93.70;;;;;;4990792;28;20085;-74
2022/06/29 03:25:37;;;;;;;3.90;1.17;;;19.10;94.00;;;;;;4995221;28;20038;-75
2022/06/29 03:28:03;;;;;;;1.42;0.60;;;19.10;93.60;;;;;;5008871;28;20026;-74
2022/06/29 03:30:30;;;;;;;0.95;0.52;;;19.10;94.10;;;;;;4990390;28;20459;-75
2022/06/29 03:32:57;;;;;;;0.88;0.50;;;19.10;94.50;;;;;;4993495;28;20023;-75
2022/06/29 03:35:23;;;;;;;2.15;0.80;;;19.10;93.40;;;;;;4994034;28;20034;-74
2022/06/29 03:37:50;;;;;;;2.95;0.63;;;19.10;92.70;;;;;;4992708;28;20372;-75
2022/06/29 03:40:17;;;;;;;1.45;0.68;;;19.10;92.70;;;;;;4993821;28;20368;-75
2022/06/29 03:42:43;;;;;;;1.48;0.60;;;19.10;92.70;;;;;;4994583;28;20038;-74
2022/06/29 03:45:10;;;;;;;3.40;1.05;;;19.00;92.90;;;;;;4995083;28;20026;-75
2022/06/29 03:47:36;;;;;;;1.45;0.68;;;19.00;93.00;;;;;;4983854;28;20034;-80
2022/06/29 03:50:02;;;;;;;2.13;0.80;;;19.00;93.60;;;;;;4993372;28;20383;-75
2022/06/29 03:52:28;;;;;;;2.47;1.10;;;19.10;93.30;;;;;;4993846;28;20034;-75
2022/06/29 03:54:55;;;;;;;6.13;1.05;;;19.00;93.10;;;;;;4989751;28;20034;-75
2022/06/29 03:57:21;;;;;;;2.25;0.80;;;19.00;93.20;;;;;;4994541;28;20049;-75
2022/06/29 03:59:47;;;;;;;3.28;1.10;;;19.00;93.00;;;;;;4993590;28;20042;-75
2022/06/29 04:02:13;;;;;;;3.10;0.73;;;19.00;93.60;;;;;;4995722;28;20044;-74
2022/06/29 04:04:40;;;;;;;2.70;1.10;;;18.90;93.20;;;;;;5003414;28;20045;-76
2022/06/29 04:07:06;;;;;;;2.92;0.80;;;18.90;93.30;;;;;;4992921;28;20027;-74
2022/06/29 04:09:32;;;;;;;2.95;0.93;;;19.00;93.80;;;;;;4994120;28;20031;-75
2022/06/29 04:11:58;;;;;;;1.70;0.55;;;19.00;93.90;;;;;;4992105;28;20061;-74
2022/06/29 04:14:27;;;;;;;1.02;0.80;;;19.00;93.00;;;;;;5000077;28;20037;-74
2022/06/29 04:16:55;;;;;;;2.25;0.82;;;19.00;93.70;;;;;;4990915;28;20030;-75
2022/06/29 04:19:21;;;;;;;2.28;0.60;;;19.00;93.30;;;;;;4970536;28;20029;-74
2022/06/29 04:21:48;;;;;;;2.28;0.60;;;19.10;93.60;;;;;;4989894;28;20053;-75
2022/06/29 04:24:15;;;;;;;2.45;1.00;;;19.10;93.80;;;;;;4992142;28;20037;-76
2022/06/29 04:26:41;;;;;;;2.03;1.00;;;19.10;93.40;;;;;;4991095;28;20037;-75
2022/06/29 04:29:07;;;;;;;3.35;1.05;;;19.10;93.20;;;;;;4988104;28;20026;-75
2022/06/29 04:31:34;;;;;;;3.58;0.88;;;19.00;93.60;;;;;;4991199;28;20030;-74
2022/06/29 04:34:01;;;;;;;2.05;1.13;;;19.00;94.80;;;;;;4993338;28;20026;-74
2022/06/29 04:36:27;;;;;;;2.65;0.80;;;19.10;94.90;;;;;;4993519;28;20037;-74
2022/06/29 04:38:54;;;;;;;2.88;0.70;;;19.20;94.00;;;;;;4986995;28;20486;-75
2022/06/29 04:41:22;;;;;;;1.63;0.68;;;19.20;94.50;;;;;;4991860;28;20042;-77
2022/06/29 04:43:49;;;;;;;2.83;0.88;;;19.20;94.40;;;;;;4990434;28;20034;-75
2022/06/29 04:46:22;;;;;;;2.40;0.85;;;19.20;94.10;;;;;;4992127;28;20022;-74
2022/06/29 04:48:56;;;;;;;2.88;1.10;;;19.10;94.50;;;;;;4992814;28;20464;-74
2022/06/29 04:51:24;;;;;;;5.20;0.90;;;19.10;94.80;;;;;;5005821;28;20038;-74
2022/06/29 04:53:54;;;;;;;2.05;0.85;;;19.10;94.50;;;;;;4992551;28;20030;-79
2022/06/29 04:56:22;;;;;;;2.22;0.82;;;19.20;94.30;;;;;;5008771;28;20030;-74
2022/06/29 04:58:50;;;;;;;3.35;0.90;;;19.20;94.70;;;;;;4988611;28;20031;-74
2022/06/29 05:01:18;;;;;;;3.28;1.10;;;19.20;95.10;;;;;;4992312;28;20030;-74
2022/06/29 05:03:44;;;;;;;3.22;1.10;;;19.30;94.40;;;;;;4991731;28;20043;-74
2022/06/29 05:06:10;;;;;;;2.20;0.90;;;19.30;93.80;;;;;;4988675;28;20034;-75
2022/06/29 05:08:37;;;;;;;2.80;1.35;;;19.40;94.30;;;;;;4993722;28;20034;-81
2022/06/29 05:11:03;;;;;;;2.80;0.90;;;19.40;93.70;;;;;;4987314;28;20037;-75
2022/06/29 05:13:29;;;;;;;2.28;1.13;;;19.30;93.20;;;;;;4998195;28;20038;-75
2022/06/29 05:15:55;;;;;;;2.80;1.00;;;19.20;93.50;;;;;;4995500;28;20026;-74
2022/06/29 05:18:22;;;;;;;3.28;1.00;;;19.20;94.30;;;;;;4992120;28;20043;-74
2022/06/29 05:20:48;;;;;;;2.10;0.90;;;19.20;94.20;;;;;;5004451;28;20038;-78
2022/06/29 05:23:14;;;;;;;3.10;0.80;;;19.20;94.20;;;;;;4993616;28;20030;-76
2022/06/29 05:25:40;;;;;;;3.10;0.85;;;19.40;95.00;;;;;;4994670;28;20018;-75
2022/06/29 05:28:08;;;;;;;2.97;0.88;;;19.40;94.00;;;;;;4990812;28;20039;-74
2022/06/29 05:30:35;;;;;;;4.22;1.25;;;19.40;94.10;;;;;;4991996;28;20033;-74
2022/06/29 05:33:01;;;;;;;1.65;1.10;;;19.40;94.30;;;;;;4992796;28;20034;-76
2022/06/29 05:35:29;;;;;;;1.40;0.80;;;19.40;94.50;;;;;;5000201;28;20449;-76
2022/06/29 05:37:56;;;;;;;1.50;0.73;;;19.50;94.10;;;;;;5002246;28;20034;-74
2022/06/29 05:40:22;;;;;;;3.60;0.95;;;19.50;93.50;;;;;;5001074;28;20037;-75
2022/06/29 05:42:48;;;;;;;7.53;2.28;;;19.40;93.90;;;;;;4994639;28;20022;-77
2022/06/29 05:45:15;;;;;;;3.35;0.93;;;19.50;94.10;;;;;;4993921;28;20049;-77
2022/06/29 05:47:42;;;;;;;3.08;0.77;;;19.50;93.80;;;;;;4995993;28;20030;-77
2022/06/29 05:50:10;;;;;;;3.22;0.75;;;19.50;94.00;;;;;;4994181;28;20041;-77
2022/06/29 05:52:37;;;;;;;1.55;0.80;;;19.50;94.10;;;;;;4993658;28;20034;-79
2022/06/29 05:55:04;;;;;;;1.80;1.08;;;19.50;93.60;;;;;;5009641;28;20042;-77
2022/06/29 05:57:30;;;;;;;2.42;1.00;;;19.60;94.00;;;;;;5010834;28;20444;-77
2022/06/29 05:59:57;;;;;;;4.28;1.38;;;19.60;93.30;;;;;;4991636;28;20027;-77
2022/06/29 06:02:23;;;;;;;1.52;0.80;;;19.60;93.60;;;;;;5005227;28;20038;-77
2022/06/29 06:04:49;;;;;;;1.40;1.00;;;19.60;94.00;;;;;;4991278;28;20038;-77
2022/06/29 06:07:15;;;;;;;4.65;1.02;;;19.60;93.80;;;;;;4994207;28;20388;-77
2022/06/29 06:09:42;;;;;;;5.25;1.13;;;19.60;94.30;;;;;;5005838;28;20042;-77
2022/06/29 06:12:08;;;;;;;2.45;1.00;;;19.70;94.10;;;;;;5003439;28;20039;-77
2022/06/29 06:14:34;;;;;;;2.72;0.90;;;19.70;94.40;;;;;;5007455;28;20034;-78
2022/06/29 06:17:00;;;;;;;3.97;1.23;;;19.80;94.30;;;;;;4988036;28;20034;-77
2022/06/29 06:19:27;;;;;;;3.35;1.42;;;19.90;94.80;;;;;;4985823;28;20031;-77
2022/06/29 06:21:53;;;;;;;4.90;1.30;;;19.80;93.80;;;;;;4990856;28;20034;-77
2022/06/29 06:24:19;;;;;;;3.72;1.23;;;20.00;94.30;;;;;;4991879;28;20046;-76
2022/06/29 06:26:45;;;;;;;2.33;1.00;;;20.00;93.30;;;;;;5007512;28;20301;-79
2022/06/29 06:29:11;;;;;;;4.25;2.05;;;20.00;93.10;;;;;;4990872;28;20045;-78
2022/06/29 06:31:38;;;;;;;2.83;1.40;;;20.20;92.90;;;;;;4988865;28;20388;-78
2022/06/29 06:34:04;;;;;;;1.77;1.00;;;20.20;93.00;;;;;;4990170;28;20039;-79
2022/06/29 06:36:31;;;;;;;2.30;1.00;;;20.20;93.50;;;;;;4979907;28;20026;-78
2022/06/29 06:38:58;;;;;;;2.65;1.20;;;20.20;93.30;;;;;;4987900;28;20035;-78
2022/06/29 06:41:27;;;;;;;3.33;0.90;;;20.20;93.00;;;;;;4985456;28;20061;-78
2022/06/29 06:43:58;;;;;;;4.30;1.00;;;20.30;93.20;;;;;;5001863;28;20671;-76
2022/06/29 06:46:25;;;;;;;2.83;1.23;;;20.30;93.40;;;;;;4972976;28;20387;-75
2022/06/29 06:48:52;;;;;;;3.30;1.25;;;20.30;93.90;;;;;;4995489;28;20034;-78
2022/06/29 06:51:20;;;;;;;5.70;1.65;;;20.40;93.50;;;;;;4995150;28;20375;-78
2022/06/29 06:53:47;;;;;;;2.30;1.17;;;20.40;93.40;;;;;;5005601;28;20383;-77
2022/06/29 06:56:14;;;;;;;3.83;0.98;;;20.50;92.80;;;;;;4995614;28;20049;-78
2022/06/29 06:58:41;;;;;;;3.05;1.25;;;20.40;93.00;;;;;;5011356;28;20045;-77
2022/06/29 07:01:09;;;;;;;1.85;1.15;;;20.50;93.00;;;;;;5002661;28;20042;-78
2022/06/29 07:03:36;;;;;;;2.47;1.23;;;20.60;92.30;;;;;;4991633;28;20073;-78
2022/06/29 07:06:04;;;;;;;2.08;1.35;;;21.00;92.30;;;;;;4990512;28;20030;-78
2022/06/29 07:08:32;;;;;;;2.70;1.02;;;22.30;87.20;;;;;;4997151;28;20026;-78
2022/06/29 07:10:59;;;;;;;2.13;1.02;;;23.50;85.60;;;;;;4993030;28;20034;-78
2022/06/29 07:13:26;;;;;;;3.38;1.38;;;24.00;75.60;;;;;;4989444;28;20035;-78
2022/06/29 07:15:53;;;;;;;4.53;1.15;;;24.00;74.70;;;;;;4995295;28;20026;-78
2022/06/29 07:18:20;;;;;;;2.38;1.40;;;24.10;74.40;;;;;;4990490;28;20027;-77
2022/06/29 07:20:46;;;;;;;8.07;1.92;;;24.10;73.90;;;;;;4986881;28;20061;-78
2022/06/29 07:23:13;;;;;;;5.00;1.55;;;23.50;73.10;;;;;;4992019;28;20043;-78
2022/06/29 07:25:39;;;;;;;2.72;1.40;;;23.10;73.70;;;;;;4977640;28;20041;-79
2022/06/29 07:28:05;;;;;;;5.13;2.15;;;23.70;74.40;;;;;;4995056;28;20042;-78
2022/06/29 07:30:32;;;;;;;8.07;2.88;;;24.50;69.40;;;;;;4992941;28;20478;-79
2022/06/29 07:32:58;;;;;;;5.72;1.90;;;24.50;69.70;;;;;;4994679;28;20294;-78
2022/06/29 07:35:26;;;;;;;5.93;2.45;;;25.70;66.00;;;;;;4993360;28;20038;-78
2022/06/29 07:37:53;;;;;;;6.07;2.10;;;26.10;65.50;;;;;;4993616;28;20027;-78
2022/06/29 07:40:20;;;;;;;6.68;2.53;;;26.50;62.90;;;;;;4992455;28;20041;-78
2022/06/29 07:42:47;;;;;;;2.15;1.30;;;26.90;61.90;;;;;;4994438;28;20046;-79
2022/06/29 07:45:13;;;;;;;3.88;1.70;;;26.50;60.30;;;;;;4993924;28;20038;-78
2022/06/29 07:47:40;;;;;;;4.20;1.30;;;25.90;61.70;;;;;;4992933;28;20042;-79
2022/06/29 07:50:07;;;;;;;4.22;1.80;;;26.20;62.60;;;;;;4987590;28;20026;-76
2022/06/29 07:52:33;;;;;;;4.07;1.52;;;27.20;60.90;;;;;;4994247;28;20042;-77
2022/06/29 07:55:01;;;;;;;3.50;1.60;;;27.80;59.50;;;;;;4987503;28;20034;-76
2022/06/29 07:57:27;;;;;;;2.70;1.65;;;28.30;58.30;;;;;;4990588;28;20042;-77
2022/06/29 07:59:53;;;;;;;7.15;2.38;;;27.50;57.30;;;;;;5007874;28;20031;-76
2022/06/29 08:02:19;;;;;;;4.60;2.20;;;26.80;58.20;;;;;;5005222;28;20373;-77
2022/06/29 08:04:45;;;;;;;3.17;2.10;;;26.80;59.00;;;;;;5009895;28;20030;-78
2022/06/29 08:07:12;;;;;;;6.82;2.90;;;27.10;57.60;;;;;;5008389;28;20456;-78
2022/06/29 08:09:38;;;;;;;4.75;1.98;;;27.00;57.30;;;;;;4991761;28;20038;-78
2022/06/29 08:12:04;;;;;;;4.43;2.10;;;26.90;57.40;;;;;;4990547;28;20043;-78
2022/06/29 08:14:31;;;;;;;4.25;1.70;;;27.10;56.70;;;;;;5006267;28;20042;-79
2022/06/29 08:16:57;;;;;;;6.07;2.13;;;27.10;57.50;;;;;;4993763;28;20034;-78
2022/06/29 08:19:23;;;;;;;2.83;1.60;;;26.80;58.30;;;;;;4993071;28;20433;-78
2022/06/29 08:21:49;;;;;;;4.15;2.15;;;26.50;58.30;;;;;;5009897;28;20073;-79
2022/06/29 08:24:16;;;;;;;5.80;2.60;;;26.10;60.40;;;;;;4999710;28;20102;-77
2022/06/29 08:26:42;;;;;;;6.18;3.03;;;25.70;59.80;;;;;;4990335;28;20026;-78
2022/06/29 08:29:08;;;;;;;3.40;2.15;;;25.60;60.50;;;;;;4993517;28;20026;-78
2022/06/29 08:31:35;;;;;;;4.38;2.88;;;25.80;62.20;;;;;;5008675;28;20038;-78
2022/06/29 08:34:11;;;;;;;6.00;2.20;;;26.10;62.00;;;;;;5005529;28;20030;-78
2022/06/29 08:36:37;;;;;;;4.15;2.13;;;25.60;61.10;;;;;;5009120;28;20038;-76
2022/06/29 08:39:04;;;;;;;5.20;2.78;;;25.20;61.80;;;;;;5007589;28;20060;-78
2022/06/29 08:41:32;;;;;;;3.78;1.80;;;25.20;61.50;;;;;;4993522;28;20046;-78
2022/06/29 08:44:02;;;;;;;4.80;2.22;;;26.00;61.90;;;;;;4987738;28;20487;-78
2022/06/29 08:46:28;;;;;;;;;;;26.40;60.70;;;;;;5009184;28;20590;-78
2022/06/29 08:48:54;;;;;;;8.52;3.35;;;26.50;59.80;;;;;;5009223;28;19905;-78
2022/06/29 08:51:23;;;;;;;6.57;2.72;;;27.20;59.90;;;;;;4988163;28;20045;-77
2022/06/29 08:53:50;;;;;;;3.78;2.35;;;27.70;58.00;;;;;;4991007;28;20041;-79
2022/06/29 08:56:18;;;;;;;10.45;2.40;;;27.90;58.80;;;;;;4990280;28;20022;-77
2022/06/29 08:58:45;;;;;;;4.20;1.85;;;28.20;58.00;;;;;;4994337;28;20027;-78
2022/06/29 09:01:12;;;;;;;7.25;2.55;;;28.20;58.30;;;;;;4992511;28;20042;-77
2022/06/29 09:03:40;;;;;;;6.30;2.53;;;27.80;57.30;;;;;;4988792;28;20464;-77
2022/06/29 09:06:07;;;;;;;4.65;2.03;;;27.60;60.40;;;;;;5007800;28;20045;-76
2022/06/29 09:08:33;;;;;;;4.72;2.20;;;28.90;57.00;;;;;;4991701;28;20037;-78
2022/06/29 09:11:22;;;;;;;6.85;2.80;;;29.40;55.50;;;;;;5005705;28;20050;-77
2022/06/29 09:14:09;;;;;;;5.68;2.50;;;29.10;55.60;;;;;;4989805;28;20041;-78
2022/06/29 09:16:59;;;;;;;8.23;2.88;;;28.90;56.90;;;;;;4990739;28;20027;-77
2022/06/29 09:19:48;;;;;;;7.72;3.05;;;29.60;56.30;;;;;;4984802;28;20035;-77
2022/06/29 09:22:15;;;;;;;5.25;3.10;;;30.50;55.70;;;;;;4986118;28;20050;-77
2022/06/29 09:24:41;;;;;;;3.58;2.55;;;28.60;55.50;;;;;;4991587;28;20030;-78
2022/06/29 09:27:11;;;;;;;7.78;3.20;;;28.50;57.60;;;;;;4991971;28;20486;-77
2022/06/29 09:29:41;;;;;;;7.88;3.88;;;29.10;56.00;;;;;;5007598;28;20384;-77
2022/06/29 09:32:08;;;;;;;5.82;3.80;;;28.90;54.90;;;;;;5001454;28;20026;-77
2022/06/29 09:34:38;;;;;;;4.70;3.13;;;28.60;55.30;;;;;;5008610;28;20035;-77
2022/06/29 09:37:07;;;;;;;4.40;3.35;;;29.40;56.50;;;;;;4993076;28;20041;-77
2022/06/29 09:39:38;;;;;;;6.20;3.30;;;29.90;55.80;;;;;;4990942;28;20037;-77
2022/06/29 09:42:08;;;;;;;4.72;3.03;;;30.10;55.70;;;;;;5005879;28;20034;-77
2022/06/29 09:44:34;;;;;;;6.40;3.78;;;29.80;56.70;;;;;;4992404;28;20037;-76
2022/06/29 09:47:05;;;;;;;6.18;3.58;;;29.60;55.20;;;;;;4985887;28;20023;-77
2022/06/29 09:49:34;;;;;;;4.60;3.75;;;30.20;55.70;;;;;;4985008;28;20026;-76
2022/06/29 09:52:02;;;;;;;5.90;4.80;;;30.10;55.20;;;;;;5006222;28;20042;-77
2022/06/29 09:54:37;;;;;;;6.28;4.00;;;29.50;54.30;;;;;;4987750;28;20282;-78
2022/06/29 09:57:04;;;;;;;8.90;4.15;;;29.40;56.00;;;;;;4990624;28;20034;-76
2022/06/29 10:02:36;;;;;;;6.55;4.22;;;28.10;56.50;;;;;;4997166;28;20226;-77
2022/06/29 10:05:23;;;;;;;6.55;4.05;;;27.20;57.80;;;;;;4996546;28;20034;-77
2022/06/29 10:07:51;;;;;;;6.30;4.40;;;27.30;58.90;;;;;;5005832;28;20034;-77
2022/06/29 10:10:20;;;;;;;6.10;3.53;;;27.60;57.70;;;;;;4990522;28;20038;-77
2022/06/29 10:15:46;;;;;;;5.07;3.22;;;28.40;57.80;;;;;;4985168;28;20034;-77
2022/06/29 10:18:23;;;;;;;6.57;3.42;;;28.00;59.50;;;;;;5003000;28;20035;-77
2022/06/29 10:20:52;;;;;;;5.70;3.70;;;28.00;60.40;;;;;;4989517;28;20046;-76
2022/06/29 10:23:44;;;;;;;5.67;3.73;;;28.10;60.30;;;;;;5007491;28;20049;-76
2022/06/29 10:26:35;;;;;;;6.47;4.07;;;28.70;58.90;;;;;;5004794;28;20038;-76
2022/06/29 10:29:22;;;;;;;5.80;4.15;;;28.80;58.50;;;;;;4990046;28;20498;-76
2022/06/29 10:31:51;;;;;;;10.13;3.92;;;29.50;57.50;;;;;;4991725;28;20411;-76
2022/06/29 10:34:30;;;;;;;5.03;3.60;;;29.40;57.60;;;;;;5003683;28;20043;-77
2022/06/29 10:37:08;;;;;;;8.57;4.82;;;29.00;56.80;;;;;;4985217;28;20038;-76
2022/06/29 10:39:48;;;;;;;10.10;4.75;;;28.40;58.20;;;;;;4976012;28;20050;-77
2022/06/29 10:45:09;;;;;;;17.63;4.50;;;28.60;57.90;;;;;;5006716;28;20038;-76
2022/06/29 10:47:35;;;;;;;7.85;5.38;;;28.00;58.50;;;;;;5006063;28;20026;-77
2022/06/29 10:50:21;;;;;;;4.90;4.15;;;27.60;59.30;;;;;;5006378;28;20038;-77
2022/06/29 10:52:48;;;;;;;5.68;4.78;;;27.50;60.00;;;;;;5006782;28;20034;-78
2022/06/29 10:55:16;;;;;;;10.93;5.75;;;27.40;58.90;;;;;;4989982;28;20038;-77
2022/06/29 10:57:44;;;;;;;6.13;4.70;;;27.60;60.00;;;;;;4992734;28;20057;-76
2022/06/29 11:00:22;;;;;;;7.18;4.50;;;27.40;60.00;;;;;;4985728;28;20038;-76
2022/06/29 11:02:48;;;;;;;7.20;4.57;;;27.20;59.80;;;;;;4991397;28;20064;-75
2022/06/29 11:05:15;;;;;;;7.97;4.78;;;27.10;61.00;;;;;;4988557;28;20030;-76
2022/06/29 11:13:31;;;;;;;6.05;4.55;;;27.40;61.10;;;;;;4999667;28;20054;-76
2022/06/29 11:15:59;;;;;;;7.72;4.30;;;28.00;59.80;;;;;;5002613;28;20049;-77
2022/06/29 11:18:30;;;;;;;6.57;4.00;;;28.60;59.80;;;;;;4977086;28;20042;-76
2022/06/29 11:21:05;;;;;;;7.10;4.82;;;29.10;58.60;;;;;;4989793;28;20281;-78
2022/06/29 11:23:33;;;;;;;4.43;3.63;;;28.90;57.50;;;;;;4989596;28;20483;-76
2022/06/29 11:26:00;;;;;;;7.30;4.45;;;29.10;58.40;;;;;;5004291;28;20047;-76
2022/06/29 11:28:29;;;;;;;5.68;3.75;;;29.20;57.70;;;;;;4985140;28;20376;-77
2022/06/29 11:31:05;;;;;;;6.78;4.10;;;28.70;58.50;;;;;;4986604;28;20022;-76
2022/06/29 11:33:46;;;;;;;6.53;4.00;;;28.50;58.70;;;;;;4992999;28;20018;-78
2022/06/29 11:36:35;;;;;;;8.55;4.30;;;28.20;59.00;;;;;;4996452;28;20491;-78
2022/06/29 11:39:06;;;;;;;9.15;4.85;;;27.80;58.70;;;;;;5008219;28;20042;-77
2022/06/29 11:44:27;;;;;;;4.60;3.47;;;27.30;59.40;;;;;;5000483;28;20037;-77
2022/06/29 11:46:55;;;;;;;7.30;3.35;;;27.40;60.70;;;;;;4996349;28;20038;-77
2022/06/29 11:49:33;;;;;;;6.97;3.75;;;27.90;59.90;;;;;;4991586;28;20034;-78
2022/06/29 11:52:05;;;;;;;6.93;4.07;;;28.10;59.10;;;;;;4993573;28;20030;-78
2022/06/29 11:54:36;;;;;;;5.82;4.38;;;28.50;58.90;;;;;;4994248;28;20053;-77
2022/06/29 11:57:08;;;;;;;5.57;4.05;;;28.90;57.80;;;;;;4986476;28;20042;-77
2022/06/29 11:59:34;;;;;;;5.50;3.83;;;28.20;58.60;;;;;;4987770;28;20026;-78
2022/06/29 12:02:01;;;;;;;8.40;4.22;;;27.90;59.10;;;;;;4989450;28;20030;-77
2022/06/29 12:04:33;;;;;;;8.52;4.78;;;28.00;59.60;;;;;;4993481;28;20046;-77
2022/06/29 12:07:13;;;;;;;7.22;4.00;;;27.90;58.40;;;;;;4993209;28;20463;-75
2022/06/29 12:09:41;;;;;;;8.80;4.63;;;27.70;58.60;;;;;;4986734;28;20031;-78
2022/06/29 12:12:09;;;;;;;6.10;4.50;;;27.80;57.70;;;;;;4993118;28;20050;-76
2022/06/29 12:14:37;;;;;;;5.75;4.75;;;27.50;58.50;;;;;;5005263;28;20027;-77
2022/06/29 12:17:05;;;;;;;7.13;4.03;;;27.80;57.90;;;;;;4990662;28;20035;-78
2022/06/29 12:19:31;;;;;;;9.02;4.80;;;28.00;57.90;;;;;;4992221;28;20034;-77
2022/06/29 12:21:58;;;;;;;5.93;3.38;;;28.00;57.80;;;;;;4988494;28;20043;-78
2022/06/29 12:24:25;;;;;;;5.20;3.60;;;28.40;59.10;;;;;;4994580;28;20037;-78
2022/06/29 12:26:52;;;;;;;4.68;2.80;;;28.60;57.20;;;;;;4992387;28;20030;-77
2022/06/29 12:29:19;;;;;;;6.63;3.53;;;28.50;58.10;;;;;;4988839;28;20375;-78
2022/06/29 12:31:46;;;;;;;3.92;3.15;;;28.80;57.50;;;;;;4992921;28;20048;-76
2022/06/29 12:34:15;;;;;;;7.80;3.70;;;29.10;56.50;;;;;;4994804;28;20026;-79
2022/06/29 12:36:42;;;;;;;4.75;3.35;;;29.20;56.20;;;;;;4994514;28;20034;-79
2022/06/29 12:39:08;;;;;;;6.13;3.13;;;29.20;58.10;;;;;;5007153;28;20042;-77
2022/06/29 12:41:36;;;;;;;5.22;3.38;;;28.80;57.00;;;;;;4994343;28;20038;-77
2022/06/29 12:44:03;;;;;;;4.97;3.35;;;28.60;59.10;;;;;;4993530;28;20041;-76
2022/06/29 12:46:30;;;;;;;4.55;2.85;;;28.10;59.20;;;;;;5004883;28;20403;-76
2022/06/29 12:48:57;;;;;;;5.22;2.55;;;28.30;59.10;;;;;;5004757;28;20443;-76
2022/06/29 12:51:24;;;;;;;3.65;3.00;;;28.40;57.90;;;;;;4993629;28;20022;-76
2022/06/29 12:53:51;;;;;;;2.58;2.08;;;28.30;58.50;;;;;;4992526;28;20050;-77
2022/06/29 12:56:17;;;;;;;6.65;3.08;;;28.50;58.30;;;;;;4993245;28;20045;-77
2022/06/29 12:58:44;;;;;;;4.78;2.83;;;28.40;57.50;;;;;;5008747;28;20061;-77
2022/06/29 13:01:11;;;;;;;3.20;2.63;;;28.50;57.80;;;;;;4997328;28;20038;-77
2022/06/29 13:03:37;;;;;;;4.97;3.17;;;28.90;57.80;;;;;;4992656;28;20042;-76
2022/06/29 13:06:03;;;;;;;4.40;2.55;;;28.70;56.50;;;;;;4992976;28;20049;-75
2022/06/29 13:08:30;;;;;;;3.50;2.67;;;28.50;56.90;;;;;;4993659;28;20030;-76
2022/06/29 13:10:59;;;;;;;5.93;2.90;;;28.70;57.20;;;;;;4985030;28;20034;-73
2022/06/29 13:13:26;;;;;;;;;;;28.60;57.20;;;;;;4976446;28;20034;-75
2022/06/29 13:15:52;;;;;;;3.40;2.75;;;28.50;58.20;;;;;;4993312;28;19912;-76